Time;durP1;ratioP1;P1;durP2;ratioP2;P2;SDS_P1;SDS_P2;PMS_P1;PMS_P2;Temp;Humidity;BMP_temperature;BMP_pressure;BME280_temperature;BME280_humidity;BME280_pressure;Samples;Min_cycle;Max_cycle;Signal;HPM_P1;HPM_P2
2021/07/19 00:00:53;;;;;;;18.92;14.23;;;16.20;99.90;;;;;;6173689;28;20985;-83
2021/07/19 00:03:54;;;;;;;30.13;15.10;;;16.40;99.90;;;;;;6190262;28;20148;-83
2021/07/19 00:06:54;;;;;;;17.00;14.27;;;16.40;99.90;;;;;;6189010;28;20034;-83
2021/07/19 00:09:55;;;;;;;18.70;13.60;;;16.40;99.90;;;;;;6190060;28;20041;-83
2021/07/19 00:12:55;;;;;;;17.63;12.60;;;16.50;99.90;;;;;;6157138;28;20038;-83
2021/07/19 00:15:56;;;;;;;19.25;12.98;;;16.50;99.90;;;;;;6173499;28;20042;-83
2021/07/19 00:18:57;;;;;;;18.05;12.85;;;16.60;99.90;;;;;;6157149;28;20031;-83
2021/07/19 00:21:57;;;;;;;16.15;11.90;;;16.50;99.90;;;;;;6189209;28;20030;-83
2021/07/19 00:24:58;;;;;;;16.98;13.15;;;16.50;99.90;;;;;;6173598;28;20034;-83
2021/07/19 00:27:58;;;;;;;14.68;12.13;;;16.50;99.90;;;;;;6189305;28;20030;-82
2021/07/19 00:30:59;;;;;;;19.25;13.13;;;16.60;99.90;;;;;;6157409;28;20077;-83
2021/07/19 00:34:00;;;;;;;20.58;13.27;;;16.60;99.90;;;;;;6156977;28;20039;-82
2021/07/19 00:37:02;;;;;;;17.70;12.13;;;16.40;99.90;;;;;;6157191;28;20019;-82
2021/07/19 00:40:14;;;;;;;18.27;11.60;;;16.40;99.90;;;;;;6188868;28;20031;-83
2021/07/19 00:43:14;;;;;;;14.57;12.07;;;16.30;99.90;;;;;;6189432;28;20394;-82
2021/07/19 00:46:15;;;;;;;14.75;11.23;;;16.10;99.90;;;;;;6173256;28;20026;-82
2021/07/19 00:49:15;;;;;;;17.90;11.18;;;16.20;99.90;;;;;;6188905;28;20030;-82
2021/07/19 00:52:16;;;;;;;18.63;11.73;;;16.40;99.90;;;;;;6173463;28;20034;-83
2021/07/19 00:55:17;;;;;;;14.27;10.68;;;16.20;99.90;;;;;;6188506;28;20458;-82
2021/07/19 00:58:17;;;;;;;14.07;10.18;;;16.30;99.90;;;;;;6189006;28;20396;-82
2021/07/19 01:01:18;;;;;;;13.70;9.60;;;16.20;99.90;;;;;;6172801;28;20061;-83
2021/07/19 01:04:19;;;;;;;11.48;9.50;;;16.30;99.90;;;;;;6172631;28;20039;-82
2021/07/19 01:07:20;;;;;;;14.15;10.10;;;16.30;99.90;;;;;;6172828;28;20026;-82
2021/07/19 01:10:21;;;;;;;10.82;8.65;;;16.30;99.90;;;;;;6172390;28;20120;-82
2021/07/19 01:13:21;;;;;;;11.80;9.13;;;16.30;99.90;;;;;;6188714;28;20027;-82
2021/07/19 01:16:22;;;;;;;9.90;8.40;;;16.40;99.90;;;;;;6188667;28;20070;-83
2021/07/19 01:19:23;;;;;;;9.32;7.82;;;16.70;99.90;;;;;;6175055;28;20380;-83
2021/07/19 01:22:52;;;;;;;13.70;7.50;;;16.40;99.90;;;;;;6160014;28;20030;-82
2021/07/19 01:26:05;;;;;;;11.55;7.47;;;17.00;99.90;;;;;;6192976;28;20038;-83
2021/07/19 01:29:06;;;;;;;11.23;7.90;;;16.40;99.90;;;;;;6192383;28;20023;-83
2021/07/19 01:32:07;;;;;;;10.65;7.57;;;16.40;99.90;;;;;;6176682;28;20034;-82
2021/07/19 01:35:08;;;;;;;10.40;6.47;;;16.40;99.90;;;;;;6176117;28;20038;-82
2021/07/19 01:38:08;;;;;;;8.35;7.07;;;16.40;99.90;;;;;;6176567;28;20035;-82
2021/07/19 01:41:09;;;;;;;9.70;7.88;;;16.40;99.90;;;;;;6176343;28;20041;-82
2021/07/19 01:44:10;;;;;;;11.68;7.88;;;16.30;99.90;;;;;;6192629;28;20438;-82
2021/07/19 01:47:10;;;;;;;10.27;7.72;;;16.30;99.90;;;;;;6176156;28;20034;-82
2021/07/19 01:50:11;;;;;;;12.13;8.15;;;16.40;99.90;;;;;;6176763;28;20058;-82
2021/07/19 01:53:12;;;;;;;9.85;7.28;;;16.30;99.90;;;;;;6176198;28;20476;-83
2021/07/19 01:56:13;;;;;;;11.20;7.78;;;16.30;99.90;;;;;;6192102;28;20039;-83
2021/07/19 01:59:14;;;;;;;9.57;6.55;;;16.10;99.90;;;;;;6176405;28;20360;-82
2021/07/19 02:02:18;;;;;;;7.40;6.57;;;16.00;99.90;;;;;;6175579;28;20068;-83
2021/07/19 02:05:20;;;;;;;9.35;6.57;;;16.00;99.90;;;;;;6176624;28;20030;-82
2021/07/19 02:08:20;;;;;;;8.70;6.57;;;15.70;99.90;;;;;;6191860;28;20045;-82
2021/07/19 02:11:27;;;;;;;10.55;6.45;;;16.00;99.90;;;;;;6176108;28;20479;-82
2021/07/19 02:14:28;;;;;;;6.78;5.90;;;16.10;99.90;;;;;;6159675;28;20041;-82
2021/07/19 02:17:29;;;;;;;8.32;6.15;;;16.10;99.90;;;;;;6175611;28;20117;-82
2021/07/19 02:20:30;;;;;;;9.52;6.28;;;16.10;99.90;;;;;;6175253;28;20035;-82
2021/07/19 02:23:31;;;;;;;7.80;6.60;;;16.10;99.90;;;;;;6191719;28;20078;-82
2021/07/19 02:26:31;;;;;;;10.60;6.50;;;16.10;99.90;;;;;;6175226;28;20041;-82
2021/07/19 02:29:32;;;;;;;10.45;6.03;;;16.00;99.90;;;;;;6175256;28;20026;-82
2021/07/19 02:32:38;;;;;;;11.40;6.50;;;15.80;99.90;;;;;;6174677;28;20084;-81
2021/07/19 02:35:41;;;;;;;8.90;5.82;;;15.60;99.90;;;;;;6159684;28;20373;-82
2021/07/19 02:38:43;;;;;;;7.90;5.70;;;15.60;99.90;;;;;;6175323;28;20456;-83
2021/07/19 02:41:44;;;;;;;7.68;6.03;;;15.50;99.90;;;;;;6175041;28;20027;-83
2021/07/19 02:44:45;;;;;;;9.27;5.93;;;15.50;99.90;;;;;;6158949;28;20465;-83
2021/07/19 02:47:49;;;;;;;7.72;6.03;;;15.50;99.90;;;;;;6175155;28;20027;-83
2021/07/19 02:50:50;;;;;;;6.63;5.35;;;15.40;99.90;;;;;;6159278;28;20041;-83
2021/07/19 02:53:52;;;;;;;8.88;5.95;;;15.40;99.90;;;;;;6158544;28;20080;-83
2021/07/19 02:56:52;;;;;;;9.25;5.72;;;15.40;99.90;;;;;;6159157;28;20030;-82
2021/07/19 02:59:53;;;;;;;6.72;5.57;;;15.40;99.90;;;;;;6175220;28;20092;-83
2021/07/19 03:02:57;;;;;;;7.57;5.30;;;15.40;99.90;;;;;;6158290;28;20034;-83
2021/07/19 03:06:05;;;;;;;8.40;5.70;;;15.40;99.90;;;;;;6175391;28;20117;-83
2021/07/19 03:09:05;;;;;;;6.95;5.88;;;15.50;99.90;;;;;;6174729;28;20069;-83
2021/07/19 03:12:07;;;;;;;7.20;5.90;;;15.40;99.90;;;;;;6191080;28;20048;-83
2021/07/19 03:15:08;;;;;;;12.53;5.93;;;14.90;99.90;;;;;;6158294;28;20063;-83
2021/07/19 03:18:09;;;;;;;8.75;5.85;;;15.30;99.90;;;;;;6158421;28;20037;-82
2021/07/19 03:21:09;;;;;;;12.23;5.95;;;15.30;99.90;;;;;;6158204;28;20032;-83
2021/07/19 03:24:11;;;;;;;8.00;6.13;;;15.30;99.90;;;;;;6158342;28;20037;-83
2021/07/19 03:27:11;;;;;;;8.88;6.57;;;15.20;99.90;;;;;;6174213;28;20023;-83
2021/07/19 03:30:12;;;;;;;9.27;6.30;;;15.30;99.90;;;;;;6174453;28;20084;-82
2021/07/19 03:33:13;;;;;;;10.88;6.43;;;15.30;99.90;;;;;;6158263;28;20057;-82
2021/07/19 03:36:14;;;;;;;10.70;6.53;;;15.20;99.90;;;;;;6157569;28;20035;-83
2021/07/19 03:39:15;;;;;;;7.10;6.05;;;15.20;99.90;;;;;;6174463;28;20924;-82
2021/07/19 03:42:15;;;;;;;8.32;5.97;;;15.10;99.90;;;;;;6173271;28;20022;-82
2021/07/19 03:45:16;;;;;;;7.72;6.05;;;15.20;99.90;;;;;;6173918;28;20033;-82
2021/07/19 03:48:20;;;;;;;7.38;5.90;;;15.10;99.90;;;;;;6173693;28;20062;-82
2021/07/19 03:51:21;;;;;;;10.68;6.10;;;15.10;99.90;;;;;;6174022;28;20038;-82
2021/07/19 03:54:22;;;;;;;9.13;6.53;;;15.10;99.90;;;;;;6189551;28;20058;-82
2021/07/19 03:57:22;;;;;;;8.93;6.05;;;15.10;99.90;;;;;;6190259;28;20283;-82
2021/07/19 04:00:23;;;;;;;6.82;5.50;;;15.20;99.90;;;;;;6173560;28;20091;-82
2021/07/19 04:03:27;;;;;;;6.47;5.60;;;15.10;99.90;;;;;;6157577;28;20037;-82
2021/07/19 04:06:27;;;;;;;10.85;5.90;;;15.20;99.90;;;;;;6174122;28;20022;-82
2021/07/19 04:09:29;;;;;;;7.40;5.50;;;15.30;99.90;;;;;;6173538;28;20037;-82
2021/07/19 04:12:30;;;;;;;7.68;5.75;;;15.30;99.90;;;;;;6173570;28;20582;-82
2021/07/19 04:15:30;;;;;;;8.45;5.55;;;15.30;99.90;;;;;;6173316;28;20069;-82
2021/07/19 04:18:31;;;;;;;6.32;5.57;;;15.40;99.90;;;;;;6189418;28;20038;-82
2021/07/19 04:21:32;;;;;;;8.63;5.90;;;15.40;99.90;;;;;;6173466;28;20414;-82
2021/07/19 04:24:33;;;;;;;8.30;5.72;;;15.60;99.90;;;;;;6173687;28;20034;-82
2021/07/19 04:27:37;;;;;;;8.32;5.80;;;15.70;99.90;;;;;;6156997;28;20021;-82
2021/07/19 04:30:38;;;;;;;8.68;6.32;;;16.00;99.90;;;;;;6172552;28;20030;-82
2021/07/19 04:33:43;;;;;;;9.57;5.60;;;16.10;99.90;;;;;;6188922;28;20116;-81
2021/07/19 04:36:43;;;;;;;7.75;5.50;;;16.30;99.90;;;;;;6172621;28;20050;-82
2021/07/19 04:39:44;;;;;;;7.28;5.72;;;16.50;99.90;;;;;;6173260;28;20038;-83
2021/07/19 04:42:45;;;;;;;6.50;5.90;;;16.50;99.90;;;;;;6172854;28;20080;-82
2021/07/19 04:45:46;;;;;;;6.72;5.38;;;16.70;99.90;;;;;;6189135;28;20415;-82
2021/07/19 04:48:47;;;;;;;6.45;5.25;;;16.90;99.90;;;;;;6156708;28;20023;-81
2021/07/19 04:51:47;;;;;;;9.82;5.95;;;17.20;99.90;;;;;;6154677;28;20103;-83
2021/07/19 04:54:48;;;;;;;7.20;5.60;;;;;;;;;;6159774;28;20090;-87
2021/07/19 04:57:51;;;;;;;6.63;5.63;;;17.70;99.90;;;;;;6177478;28;20027;-87
2021/07/19 05:00:54;;;;;;;6.30;4.88;;;17.80;99.90;;;;;;6161577;28;20485;-89
2021/07/19 05:03:56;;;;;;;6.45;4.95;;;18.00;99.90;;;;;;6161299;28;20056;-83
2021/07/19 05:06:56;;;;;;;8.25;5.03;;;18.20;99.90;;;;;;6192383;28;20042;-83
2021/07/19 05:09:58;;;;;;;6.65;4.82;;;18.40;99.90;;;;;;6177453;28;20618;-88
2021/07/19 05:12:58;;;;;;;6.18;4.57;;;18.80;99.90;;;;;;6160425;28;20146;-84
2021/07/19 05:15:59;;;;;;;6.43;4.90;;;19.10;99.90;;;;;;6176349;28;20038;-82
2021/07/19 05:19:00;;;;;;;6.38;5.20;;;19.30;99.90;;;;;;6176989;28;20065;-80
2021/07/19 05:22:01;;;;;;;6.65;4.63;;;20.20;99.90;;;;;;6176381;28;20065;-82
2021/07/19 05:25:02;;;;;;;7.13;4.88;;;19.70;99.90;;;;;;6193162;28;20039;-81
2021/07/19 05:28:03;;;;;;;6.43;4.72;;;19.90;99.90;;;;;;6176650;28;20456;-81
2021/07/19 05:31:04;;;;;;;5.13;4.63;;;20.20;99.90;;;;;;6193472;28;20034;-82
2021/07/19 05:34:05;;;;;;;7.55;4.72;;;20.50;99.90;;;;;;6159783;28;20022;-82
2021/07/19 05:37:05;;;;;;;6.15;4.70;;;20.70;99.90;;;;;;6159369;28;20042;-81
2021/07/19 05:40:07;;;;;;;5.78;5.07;;;20.80;99.90;;;;;;6175887;28;20030;-82
2021/07/19 05:43:07;;;;;;;4.57;4.17;;;21.30;99.90;;;;;;6192343;28;20497;-80
2021/07/19 05:46:09;;;;;;;6.40;4.47;;;21.60;99.90;;;;;;6175781;28;20063;-83
2021/07/19 05:49:10;;;;;;;11.82;4.53;;;22.20;99.90;;;;;;6175925;28;20403;-82
2021/07/19 05:52:10;;;;;;;7.63;4.68;;;22.80;99.90;;;;;;6176431;28;20072;-83
2021/07/19 05:55:12;;;;;;;6.78;4.63;;;22.10;99.90;;;;;;6174590;28;20204;-83
2021/07/19 05:58:12;;;;;;;7.07;4.53;;;23.70;99.90;;;;;;6175772;28;20030;-82
2021/07/19 06:01:13;;;;;;;7.97;4.72;;;24.20;98.80;;;;;;6159676;28;20627;-84
2021/07/19 06:04:13;;;;;;;7.40;5.07;;;24.50;98.40;;;;;;6191542;28;20026;-83
2021/07/19 06:07:14;;;;;;;5.60;4.60;;;24.60;98.40;;;;;;6176180;28;20109;-83
2021/07/19 06:10:15;;;;;;;4.57;4.03;;;24.60;98.10;;;;;;6177337;28;20031;-82
2021/07/19 06:13:15;;;;;;;10.63;4.82;;;24.90;97.40;;;;;;6157558;28;20018;-80
2021/07/19 06:16:16;;;;;;;5.30;4.70;;;25.30;96.40;;;;;;6191414;28;20038;-79
2021/07/19 06:19:17;;;;;;;8.23;4.63;;;25.50;96.00;;;;;;6191229;28;20062;-78
2021/07/19 06:22:17;;;;;;;10.27;4.80;;;25.70;95.90;;;;;;6192259;28;20034;-79
2021/07/19 06:25:18;;;;;;;6.00;4.13;;;26.10;95.90;;;;;;6192350;28;20048;-80
2021/07/19 06:28:18;;;;;;;6.40;4.93;;;26.50;95.00;;;;;;6195350;28;20491;-79
2021/07/19 06:31:19;;;;;;;5.83;4.63;;;26.70;94.00;;;;;;6192518;28;20501;-78
2021/07/19 06:34:19;;;;;;;8.27;4.90;;;27.20;93.50;;;;;;6191178;28;20060;-82
2021/07/19 06:37:20;;;;;;;8.43;4.83;;;27.60;92.80;;;;;;6192158;28;20037;-87
2021/07/19 06:40:21;;;;;;;6.63;4.90;;;28.10;92.20;;;;;;6191445;28;20443;-83
2021/07/19 06:43:21;;;;;;;5.27;4.47;;;28.40;91.90;;;;;;6175257;28;20032;-83
2021/07/19 06:46:22;;;;;;;5.30;4.77;;;28.60;91.50;;;;;;6175293;28;20022;-83
2021/07/19 06:49:24;;;;;;;8.07;5.10;;;28.80;90.80;;;;;;6174540;28;20058;-83
2021/07/19 06:52:24;;;;;;;;;;;29.20;90.30;;;;;;6191342;28;20051;-83
2021/07/19 06:55:25;;;;;;;6.63;5.28;;;29.60;88.50;;;;;;6174103;28;20378;-83
2021/07/19 06:58:25;;;;;;;6.03;4.60;;;29.90;85.70;;;;;;6174145;28;20034;-83
2021/07/19 07:01:26;;;;;;;8.90;5.37;;;30.00;85.70;;;;;;6174703;28;20030;-84
2021/07/19 07:04:26;;;;;;;8.10;4.97;;;30.30;84.70;;;;;;6174542;28;20063;-84
2021/07/19 07:07:27;;;;;;;8.83;4.53;;;30.60;83.90;;;;;;6190630;28;20494;-84
2021/07/19 07:10:28;;;;;;;6.43;5.20;;;30.80;83.00;;;;;;6174416;28;20038;-84
2021/07/19 07:13:28;;;;;;;5.07;4.27;;;30.80;82.00;;;;;;6190607;28;20368;-85
2021/07/19 07:16:29;;;;;;;6.47;4.47;;;31.10;80.80;;;;;;6173167;28;20045;-85
2021/07/19 07:19:29;;;;;;;7.03;4.50;;;31.30;79.90;;;;;;6157527;28;20418;-85
2021/07/19 07:22:30;;;;;;;9.90;4.60;;;31.50;79.40;;;;;;6189823;28;20034;-85
2021/07/19 07:25:31;;;;;;;6.57;5.10;;;31.60;78.00;;;;;;6173929;28;20026;-83
2021/07/19 07:28:31;;;;;;;8.02;5.20;;;31.60;75.50;;;;;;6173774;28;20117;-83
2021/07/19 07:31:32;;;;;;;6.33;5.37;;;31.70;75.10;;;;;;6155989;28;20026;-82
2021/07/19 07:34:33;;;;;;;6.63;5.87;;;31.90;74.20;;;;;;6190951;28;20096;-82
2021/07/19 07:37:34;;;;;;;10.57;5.80;;;32.20;73.40;;;;;;6188614;28;20058;-82
2021/07/19 07:40:34;;;;;;;8.32;5.68;;;32.50;73.80;;;;;;6190883;28;20026;-82
2021/07/19 07:43:35;;;;;;;9.93;6.10;;;32.70;71.70;;;;;;6190608;28;20034;-82
2021/07/19 07:46:36;;;;;;;9.53;7.50;;;32.50;71.70;;;;;;6172464;28;20759;-82
2021/07/19 07:49:37;;;;;;;9.50;5.80;;;32.50;71.50;;;;;;6171368;28;20030;-82
2021/07/19 07:52:39;;;;;;;7.15;5.55;;;32.80;70.90;;;;;;6189598;28;20030;-82
2021/07/19 07:55:39;;;;;;;6.93;6.00;;;33.00;70.60;;;;;;6189449;28;20050;-82
2021/07/19 07:58:40;;;;;;;6.43;4.97;;;33.20;71.00;;;;;;6190671;28;20037;-81
2021/07/19 08:01:41;;;;;;;8.10;5.67;;;33.20;70.00;;;;;;6191222;28;20031;-82
2021/07/19 08:04:41;;;;;;;7.53;5.67;;;32.50;70.40;;;;;;6173065;28;20262;-82
2021/07/19 08:07:42;;;;;;;6.47;5.45;;;33.30;70.30;;;;;;6191337;28;20027;-83
2021/07/19 08:10:43;;;;;;;7.05;5.65;;;33.20;69.40;;;;;;6189371;28;20029;-83
2021/07/19 08:13:43;;;;;;;7.13;5.20;;;33.30;68.50;;;;;;6173081;28;20035;-84
2021/07/19 08:16:44;;;;;;;6.20;5.60;;;33.40;69.20;;;;;;6173178;28;20038;-85
2021/07/19 08:19:45;;;;;;;6.47;5.33;;;33.50;69.80;;;;;;6172730;28;20042;-86
2021/07/19 08:22:47;;;;;;;6.22;5.63;;;33.50;68.70;;;;;;6173389;28;20268;-86
2021/07/19 08:25:48;;;;;;;8.70;5.75;;;33.70;68.70;;;;;;6187954;28;20055;-85
2021/07/19 08:28:48;;;;;;;6.43;5.20;;;33.50;69.20;;;;;;6161463;28;20038;-82
2021/07/19 08:31:49;;;;;;;7.10;5.22;;;33.60;69.50;;;;;;6193346;28;20045;-83
2021/07/19 08:34:49;;;;;;;6.50;5.57;;;33.40;68.50;;;;;;6195159;28;20095;-81
2021/07/19 08:37:52;;;;;;;9.52;5.47;;;33.20;70.50;;;;;;6193230;28;20135;-85
2021/07/19 08:40:52;;;;;;;5.93;4.95;;;33.20;70.10;;;;;;6161610;28;20022;-85
2021/07/19 08:43:53;;;;;;;6.40;5.30;;;33.30;69.70;;;;;;6177007;28;20052;-85
2021/07/19 08:46:54;;;;;;;8.80;5.43;;;33.30;70.50;;;;;;6161005;28;20046;-85
2021/07/19 08:49:54;;;;;;;7.47;5.20;;;33.30;70.30;;;;;;6176850;28;20015;-85
2021/07/19 08:52:55;;;;;;;6.55;4.75;;;33.50;70.30;;;;;;6176789;28;20151;-84
2021/07/19 08:55:56;;;;;;;8.40;5.20;;;33.40;69.40;;;;;;6176102;28;20065;-87
2021/07/19 08:58:57;;;;;;;5.53;4.90;;;33.20;70.70;;;;;;6176604;28;20038;-85
2021/07/19 09:02:02;;;;;;;6.35;4.95;;;33.60;70.30;;;;;;6175663;28;20487;-84
2021/07/19 09:05:03;;;;;;;5.85;5.35;;;33.50;69.20;;;;;;6156597;28;20395;-86
2021/07/19 09:08:07;;;;;;;10.18;5.03;;;33.40;69.60;;;;;;6175100;28;20105;-84
2021/07/19 09:11:08;;;;;;;7.55;4.93;;;33.80;69.50;;;;;;6158713;28;20031;-85
2021/07/19 09:14:09;;;;;;;8.70;5.25;;;33.70;68.90;;;;;;6174082;28;20099;-85
2021/07/19 09:17:25;;;;;;;6.43;5.00;;;33.60;68.10;;;;;;6173555;28;20039;-85
2021/07/19 09:20:34;;;;;;;10.52;4.70;;;33.50;66.70;;;;;;6177292;28;20038;-86
2021/07/19 09:23:35;;;;;;;5.50;4.93;;;33.50;67.40;;;;;;6160585;28;20474;-85
2021/07/19 09:26:36;;;;;;;6.18;5.10;;;33.80;68.60;;;;;;6160132;28;20042;-86
2021/07/19 09:29:37;;;;;;;;;;;33.90;67.90;;;;;;6160446;28;20038;-86
2021/07/19 09:33:00;;;;;;;6.63;4.57;;;34.20;66.80;;;;;;6176461;28;19901;-86
2021/07/19 09:36:02;;;;;;;5.55;4.78;;;34.30;66.30;;;;;;6192464;28;20038;-85
2021/07/19 09:39:09;;;;;;;7.18;5.03;;;34.20;66.90;;;;;;6174952;28;20107;-86
2021/07/19 09:42:12;;;;;;;5.57;5.00;;;34.30;66.70;;;;;;6159839;28;20105;-86
2021/07/19 09:45:22;;;;;;;6.72;4.85;;;34.60;67.20;;;;;;6160017;28;20029;-85
2021/07/19 09:48:23;;;;;;;6.43;5.35;;;34.80;65.10;;;;;;6176101;28;20113;-86
2021/07/19 09:51:32;;;;;;;5.38;4.88;;;34.60;65.40;;;;;;6176154;28;20103;-86
2021/07/19 09:54:34;;;;;;;5.90;5.30;;;34.60;66.20;;;;;;6160167;28;20050;-86
2021/07/19 09:57:35;;;;;;;6.32;5.03;;;34.60;65.70;;;;;;6159015;28;20034;-86
2021/07/19 10:00:35;;;;;;;6.50;4.93;;;34.70;66.70;;;;;;6159846;28;20464;-87
2021/07/19 10:03:36;;;;;;;7.97;5.35;;;34.90;65.00;;;;;;6175305;28;20046;-87
2021/07/19 10:06:38;;;;;;;6.07;4.43;;;34.70;66.60;;;;;;6176152;28;20125;-86
2021/07/19 10:09:39;;;;;;;6.43;5.28;;;34.80;65.70;;;;;;6159694;28;20027;-87
2021/07/19 10:12:41;;;;;;;5.97;5.18;;;35.30;67.50;;;;;;6175597;28;20041;-87
2021/07/19 10:15:42;;;;;;;6.63;5.60;;;34.70;66.20;;;;;;6159124;28;20129;-87
2021/07/19 10:18:45;;;;;;;8.27;5.82;;;34.80;67.50;;;;;;6159529;28;20452;-86
2021/07/19 10:21:46;;;;;;;6.20;5.60;;;34.50;68.70;;;;;;6159599;28;20064;-87
2021/07/19 10:24:46;;;;;;;5.97;5.03;;;34.60;68.70;;;;;;6159382;28;20042;-86
2021/07/19 10:27:47;;;;;;;6.82;5.43;;;34.70;67.30;;;;;;6162164;28;20045;-87
2021/07/19 10:30:48;;;;;;;5.45;4.95;;;35.00;67.40;;;;;;6163293;28;20042;-86
2021/07/19 10:33:49;;;;;;;6.30;5.18;;;34.90;66.10;;;;;;6161673;28;20037;-86
2021/07/19 10:37:00;;;;;;;10.25;5.80;;;34.70;65.60;;;;;;6158926;28;20038;-87
2021/07/19 10:40:03;;;;;;;20.90;6.93;;;34.40;66.60;;;;;;6159953;28;20037;-86
2021/07/19 10:43:29;;;;;;;9.38;6.10;;;34.20;67.90;;;;;;6175169;28;20697;-87
2021/07/19 10:46:30;;;;;;;7.43;5.53;;;33.80;69.50;;;;;;6191279;28;20058;-87
2021/07/19 10:49:30;;;;;;;6.90;5.28;;;33.80;70.10;;;;;;6155572;28;20453;-86
2021/07/19 10:52:37;;;;;;;7.05;5.57;;;33.90;69.90;;;;;;6157802;28;20440;-86
2021/07/19 10:55:37;;;;;;;8.32;5.82;;;34.20;69.00;;;;;;6173202;28;20057;-85
2021/07/19 10:58:41;;;;;;;7.10;6.20;;;33.70;71.00;;;;;;6172664;28;20019;-84
2021/07/19 11:01:50;;;;;;;8.25;5.57;;;33.80;78.70;;;;;;6174038;28;20042;-86
2021/07/19 11:04:51;;;;;;;6.30;5.38;;;34.00;78.50;;;;;;6174292;28;20387;-86
2021/07/19 11:07:52;;;;;;;6.13;5.15;;;34.10;78.40;;;;;;6157891;28;20033;-85
2021/07/19 11:10:54;;;;;;;5.80;5.15;;;34.00;76.00;;;;;;6174580;28;20485;-83
2021/07/19 11:13:57;;;;;;;6.53;5.72;;;34.00;75.70;;;;;;6157630;28;20022;-83
2021/07/19 11:17:07;;;;;;;6.78;6.00;;;34.70;78.20;;;;;;6174082;28;20077;-84
2021/07/19 11:20:15;;;;;;;6.63;5.93;;;34.10;76.00;;;;;;6159383;28;20030;-84
2021/07/19 11:23:28;;;;;;;6.85;5.43;;;33.70;75.40;;;;;;6159248;28;20026;-83
2021/07/19 11:26:29;;;;;;;6.07;5.47;;;33.80;75.70;;;;;;6157980;28;20372;-84
2021/07/19 11:29:36;;;;;;;6.18;5.20;;;33.90;72.70;;;;;;6190106;28;20065;-83
2021/07/19 11:32:38;;;;;;;6.57;5.38;;;33.80;72.90;;;;;;6173487;28;20034;-83
2021/07/19 11:35:40;;;;;;;6.97;5.47;;;33.60;74.80;;;;;;6173237;28;20034;-83
2021/07/19 11:38:40;;;;;;;6.68;5.05;;;33.60;74.70;;;;;;6173823;28;20023;-84
2021/07/19 11:41:41;;;;;;;8.10;5.63;;;33.50;75.80;;;;;;6173763;28;20548;-83
2021/07/19 11:44:43;;;;;;;6.68;5.40;;;33.30;75.90;;;;;;6158103;28;20033;-84
2021/07/19 11:47:53;;;;;;;8.23;5.72;;;33.30;77.80;;;;;;6173676;28;20047;-83
2021/07/19 11:50:57;;;;;;;6.63;5.93;;;33.20;76.90;;;;;;6173921;28;20061;-84
2021/07/19 11:53:58;;;;;;;8.68;5.65;;;33.10;75.40;;;;;;6173588;28;20096;-85
2021/07/19 11:56:59;;;;;;;;;;;33.30;74.80;;;;;;6157983;28;20042;-83
2021/07/19 11:59:59;;;;;;;6.63;5.13;;;33.30;73.60;;;;;;6189481;28;19914;-84
2021/07/19 12:03:07;;;;;;;6.00;5.40;;;33.00;75.20;;;;;;6157485;28;20087;-83
2021/07/19 12:06:08;;;;;;;6.35;5.43;;;32.90;74.60;;;;;;6189778;28;20046;-84
2021/07/19 12:09:09;;;;;;;6.47;5.05;;;33.00;74.00;;;;;;6173466;28;20181;-86
2021/07/19 12:12:13;;;;;;;10.27;5.68;;;32.70;75.30;;;;;;6157387;28;20045;-83
2021/07/19 12:15:17;;;;;;;6.65;5.95;;;32.40;74.60;;;;;;6173381;28;20436;-83
2021/07/19 12:18:32;;;;;;;11.05;5.53;;;32.40;75.50;;;;;;6172983;28;20019;-83
2021/07/19 12:21:41;;;;;;;6.82;5.60;;;32.50;71.70;;;;;;6189801;28;20076;-85
2021/07/19 12:24:41;;;;;;;7.20;5.80;;;32.10;73.90;;;;;;6170205;28;20034;-83
2021/07/19 12:27:43;;;;;;;7.17;5.90;;;31.90;72.80;;;;;;6166772;28;20541;-83
2021/07/19 12:30:44;;;;;;;7.47;5.70;;;31.90;74.50;;;;;;6182533;28;20269;-83
2021/07/19 12:33:44;;;;;;;8.03;5.17;;;31.80;74.40;;;;;;6170418;28;20030;-83
2021/07/19 12:36:56;;;;;;;7.43;5.90;;;31.80;75.80;;;;;;6155828;28;20309;-81
2021/07/19 12:39:59;;;;;;;;;;;31.70;74.80;;;;;;6189307;28;20281;-84
2021/07/19 12:43:00;;;;;;;8.40;6.22;;;31.00;78.50;;;;;;6173336;28;20308;-83
2021/07/19 12:46:00;;;;;;;8.37;5.57;;;31.00;78.20;;;;;;6157066;28;20080;-83
2021/07/19 12:49:01;;;;;;;6.17;5.50;;;30.90;78.70;;;;;;6157206;28;20023;-81
2021/07/19 12:52:16;;;;;;;9.73;6.13;;;31.10;78.70;;;;;;6173407;28;20367;-81
2021/07/19 12:55:24;;;;;;;6.90;5.32;;;31.00;77.10;;;;;;6188837;28;20046;-84
2021/07/19 12:58:25;;;;;;;6.45;5.65;;;31.00;77.60;;;;;;6189433;28;20026;-84
2021/07/19 13:01:36;;;;;;;8.67;5.83;;;30.90;77.90;;;;;;6156932;28;20062;-85
2021/07/19 13:04:36;;;;;;;8.85;5.68;;;30.90;75.50;;;;;;6174118;28;20455;-83
2021/07/19 13:07:37;;;;;;;9.07;5.83;;;31.00;75.70;;;;;;6173013;28;20030;-81
2021/07/19 13:10:38;;;;;;;7.13;5.72;;;30.90;74.70;;;;;;6173065;28;20034;-81
2021/07/19 13:13:39;;;;;;;6.50;5.73;;;30.60;76.90;;;;;;6173522;28;20042;-81
2021/07/19 13:16:40;;;;;;;7.90;6.05;;;30.60;75.80;;;;;;6176887;28;20042;-81
2021/07/19 13:19:41;;;;;;;7.78;5.60;;;30.70;76.00;;;;;;6192789;28;20043;-81
2021/07/19 13:22:44;;;;;;;;;;;30.80;78.30;;;;;;6194853;28;20113;-81
2021/07/19 13:25:45;;;;;;;7.97;5.30;;;30.70;77.50;;;;;;6192375;28;20019;-82
2021/07/19 13:28:46;;;;;;;;;;;31.00;76.70;;;;;;6160883;28;20046;-80
2021/07/19 13:31:46;;;;;;;6.90;5.57;;;31.00;76.20;;;;;;6192690;28;20004;-78
2021/07/19 13:35:10;;;;;;;5.77;5.17;;;31.00;76.40;;;;;;6160375;28;20053;-78
2021/07/19 13:38:11;;;;;;;7.00;5.38;;;31.00;77.40;;;;;;6192102;28;20035;-79
2021/07/19 13:41:18;;;;;;;9.70;5.47;;;31.00;76.90;;;;;;6176076;28;20027;-79
2021/07/19 13:44:19;;;;;;;11.13;6.55;;;31.00;76.60;;;;;;6192192;28;20022;-82
2021/07/19 13:47:19;;;;;;;9.73;5.50;;;31.00;77.20;;;;;;6173404;28;20044;-79
2021/07/19 13:50:20;;;;;;;7.53;5.90;;;30.70;75.70;;;;;;6189509;28;20038;-78
2021/07/19 13:53:21;;;;;;;10.50;5.40;;;30.60;76.40;;;;;;6175843;28;20133;-82
2021/07/19 13:56:21;;;;;;;6.03;5.27;;;30.50;76.10;;;;;;6174015;28;20038;-81
2021/07/19 13:59:22;;;;;;;6.10;4.93;;;30.60;77.40;;;;;;6176233;28;20035;-80
2021/07/19 14:02:23;;;;;;;7.17;5.37;;;30.60;74.70;;;;;;6174633;28;20092;-81
2021/07/19 14:05:23;;;;;;;7.87;5.50;;;30.60;76.50;;;;;;6191820;28;20034;-84
2021/07/19 14:08:24;;;;;;;7.83;5.80;;;30.60;75.80;;;;;;6159439;28;20030;-79
2021/07/19 14:11:24;;;;;;;6.47;5.23;;;30.30;75.20;;;;;;6190190;28;20345;-84
2021/07/19 14:14:25;;;;;;;6.03;4.80;;;30.50;77.20;;;;;;6190869;28;20034;-83
2021/07/19 14:17:25;;;;;;;16.07;8.37;;;30.40;76.20;;;;;;6191492;28;20483;-84
2021/07/19 14:20:26;;;;;;;5.67;5.07;;;30.40;76.00;;;;;;6171436;28;20065;-83
2021/07/19 14:23:27;;;;;;;5.93;4.78;;;30.60;77.30;;;;;;6174389;28;20032;-82
2021/07/19 14:26:33;;;;;;;17.33;8.83;;;30.80;76.50;;;;;;6158539;28;20041;-82
2021/07/19 14:29:34;;;;;;;40.47;18.77;;;30.90;74.70;;;;;;6190868;28;20266;-82
2021/07/19 14:32:36;;;;;;;41.90;16.27;;;31.00;75.70;;;;;;6174905;28;20042;-83
2021/07/19 14:35:36;;;;;;;8.55;6.30;;;31.00;75.10;;;;;;6175190;28;20034;-82
2021/07/19 14:38:37;;;;;;;32.17;15.47;;;30.90;73.70;;;;;;6174636;28;20448;-83
2021/07/19 14:41:39;;;;;;;23.27;10.47;;;30.60;74.10;;;;;;6190729;28;20033;-82
2021/07/19 14:44:39;;;;;;;17.98;8.48;;;30.40;73.70;;;;;;6190841;28;20033;-82
2021/07/19 14:47:40;;;;;;;24.67;11.30;;;30.10;74.30;;;;;;6174829;28;20038;-80
2021/07/19 14:50:41;;;;;;;20.70;11.17;;;30.00;74.80;;;;;;6174627;28;20062;-85
2021/07/19 14:53:41;;;;;;;11.23;6.17;;;29.60;77.60;;;;;;6190864;28;20057;-81
2021/07/19 14:56:42;;;;;;;12.70;6.80;;;29.30;76.70;;;;;;6174471;28;20034;-83
2021/07/19 14:59:42;;;;;;;6.77;5.03;;;29.80;76.20;;;;;;6174856;28;20475;-81
2021/07/19 15:02:43;;;;;;;17.30;8.43;;;30.10;75.30;;;;;;6173723;28;20099;-84
2021/07/19 15:05:44;;;;;;;8.40;5.35;;;30.10;74.10;;;;;;6190723;28;20138;-82
2021/07/19 15:08:44;;;;;;;14.87;7.53;;;30.30;73.50;;;;;;6174537;28;20065;-84
2021/07/19 15:11:45;;;;;;;14.03;7.63;;;30.20;72.70;;;;;;6174003;28;20094;-82
2021/07/19 15:14:45;;;;;;;28.83;12.03;;;30.20;73.20;;;;;;6190753;28;20027;-82
2021/07/19 15:17:46;;;;;;;4.47;4.07;;;30.20;72.10;;;;;;6173808;28;20037;-82
2021/07/19 15:20:47;;;;;;;8.60;4.63;;;30.30;71.50;;;;;;6190520;28;20105;-83
2021/07/19 15:23:47;;;;;;;6.65;4.20;;;30.20;69.80;;;;;;6189822;28;20495;-82
2021/07/19 15:26:48;;;;;;;6.73;4.80;;;30.20;70.80;;;;;;6157866;28;20764;-82
2021/07/19 15:29:49;;;;;;;5.50;3.77;;;29.90;69.10;;;;;;6158295;28;20275;-81
2021/07/19 15:32:49;;;;;;;5.03;4.53;;;29.70;71.10;;;;;;6157947;28;20119;-81
2021/07/19 15:35:50;;;;;;;7.93;4.20;;;29.60;72.10;;;;;;6173647;28;20039;-84
2021/07/19 15:38:52;;;;;;;4.80;3.93;;;29.40;71.90;;;;;;6173322;28;20037;-84
2021/07/19 15:41:53;;;;;;;5.35;4.45;;;29.30;72.00;;;;;;6158251;28;20448;-82
2021/07/19 15:44:57;;;;;;;4.93;4.17;;;29.20;71.10;;;;;;6157374;28;20069;-86